sensor_id;sensor_type;location;lat;lon;timestamp;P1;durP1;ratioP1;P2;durP2;ratioP2
54699;SDS011;40599;53.132;6.090;2023-04-03T00:02:02;7.25;;;4.78;;
54699;SDS011;40599;53.132;6.090;2023-04-03T00:04:28;5.05;;;4.65;;
54699;SDS011;40599;53.132;6.090;2023-04-03T00:06:55;4.90;;;4.50;;
54699;SDS011;40599;53.132;6.090;2023-04-03T00:09:21;5.07;;;4.65;;
54699;SDS011;40599;53.132;6.090;2023-04-03T00:11:47;5.25;;;4.85;;
54699;SDS011;40599;53.132;6.090;2023-04-03T00:14:13;5.32;;;4.82;;
54699;SDS011;40599;53.132;6.090;2023-04-03T00:16:40;5.32;;;4.72;;
54699;SDS011;40599;53.132;6.090;2023-04-03T00:19:06;7.82;;;5.43;;
54699;SDS011;40599;53.132;6.090;2023-04-03T00:21:32;8.25;;;5.20;;
54699;SDS011;40599;53.132;6.090;2023-04-03T00:23:58;5.85;;;5.20;;
54699;SDS011;40599;53.132;6.090;2023-04-03T00:26:24;5.97;;;5.43;;
54699;SDS011;40599;53.132;6.090;2023-04-03T00:28:51;6.80;;;4.90;;
54699;SDS011;40599;53.132;6.090;2023-04-03T00:31:17;7.53;;;5.30;;
54699;SDS011;40599;53.132;6.090;2023-04-03T00:33:43;6.07;;;5.50;;
54699;SDS011;40599;53.132;6.090;2023-04-03T00:36:09;5.35;;;4.85;;
54699;SDS011;40599;53.132;6.090;2023-04-03T00:38:36;5.20;;;4.75;;
54699;SDS011;40599;53.132;6.090;2023-04-03T00:41:02;6.60;;;5.10;;
54699;SDS011;40599;53.132;6.090;2023-04-03T00:43:28;6.65;;;5.60;;
54699;SDS011;40599;53.132;6.090;2023-04-03T00:45:55;5.40;;;4.75;;
54699;SDS011;40599;53.132;6.090;2023-04-03T00:48:36;5.40;;;5.00;;
54699;SDS011;40599;53.132;6.090;2023-04-03T00:51:05;6.53;;;5.22;;
54699;SDS011;40599;53.132;6.090;2023-04-03T00:53:43;6.07;;;5.47;;
54699;SDS011;40599;53.132;6.090;2023-04-03T00:56:11;5.85;;;5.28;;
54699;SDS011;40599;53.132;6.090;2023-04-03T00:59:21;5.60;;;4.95;;
54699;SDS011;40599;53.132;6.090;2023-04-03T01:01:28;7.07;;;4.97;;
54699;SDS011;40599;53.132;6.090;2023-04-03T01:03:55;6.53;;;5.93;;
54699;SDS011;40599;53.132;6.090;2023-04-03T01:06:23;6.18;;;5.68;;
54699;SDS011;40599;53.132;6.090;2023-04-03T01:08:51;6.43;;;4.97;;
54699;SDS011;40599;53.132;6.090;2023-04-03T01:11:17;6.22;;;5.72;;
54699;SDS011;40599;53.132;6.090;2023-04-03T01:13:43;6.13;;;5.53;;
54699;SDS011;40599;53.132;6.090;2023-04-03T01:16:09;7.88;;;5.45;;
54699;SDS011;40599;53.132;6.090;2023-04-03T01:18:36;6.72;;;5.40;;
54699;SDS011;40599;53.132;6.090;2023-04-03T01:23:32;7.25;;;5.78;;
54699;SDS011;40599;53.132;6.090;2023-04-03T01:26:02;7.68;;;6.07;;
54699;SDS011;40599;53.132;6.090;2023-04-03T01:28:30;7.53;;;5.22;;
54699;SDS011;40599;53.132;6.090;2023-04-03T01:30:59;6.53;;;5.90;;
54699;SDS011;40599;53.132;6.090;2023-04-03T01:33:28;6.57;;;6.07;;
54699;SDS011;40599;53.132;6.090;2023-04-03T01:35:55;6.47;;;5.88;;
54699;SDS011;40599;53.132;6.090;2023-04-03T01:38:21;5.80;;;5.38;;
54699;SDS011;40599;53.132;6.090;2023-04-03T01:40:47;6.30;;;5.80;;
54699;SDS011;40599;53.132;6.090;2023-04-03T01:43:13;6.47;;;5.97;;
54699;SDS011;40599;53.132;6.090;2023-04-03T01:45:39;6.95;;;6.25;;
54699;SDS011;40599;53.132;6.090;2023-04-03T01:48:05;6.60;;;5.88;;
54699;SDS011;40599;53.132;6.090;2023-04-03T01:50:32;8.15;;;6.10;;
54699;SDS011;40599;53.132;6.090;2023-04-03T01:52:58;6.38;;;5.88;;
54699;SDS011;40599;53.132;6.090;2023-04-03T01:55:24;6.30;;;5.78;;
54699;SDS011;40599;53.132;6.090;2023-04-03T01:57:50;6.60;;;5.95;;
54699;SDS011;40599;53.132;6.090;2023-04-03T02:00:16;7.05;;;5.78;;
54699;SDS011;40599;53.132;6.090;2023-04-03T02:02:42;6.53;;;6.03;;
54699;SDS011;40599;53.132;6.090;2023-04-03T02:05:09;7.00;;;6.30;;
54699;SDS011;40599;53.132;6.090;2023-04-03T02:07:35;6.72;;;6.03;;
54699;SDS011;40599;53.132;6.090;2023-04-03T02:10:02;6.32;;;5.72;;
54699;SDS011;40599;53.132;6.090;2023-04-03T02:12:28;7.68;;;6.05;;
54699;SDS011;40599;53.132;6.090;2023-04-03T02:14:54;7.63;;;5.97;;
54699;SDS011;40599;53.132;6.090;2023-04-03T02:17:20;6.82;;;6.20;;
54699;SDS011;40599;53.132;6.090;2023-04-03T02:19:46;7.13;;;6.25;;
54699;SDS011;40599;53.132;6.090;2023-04-03T02:22:13;7.97;;;6.30;;
54699;SDS011;40599;53.132;6.090;2023-04-03T02:24:39;6.95;;;5.90;;
54699;SDS011;40599;53.132;6.090;2023-04-03T02:27:06;9.55;;;6.50;;
54699;SDS011;40599;53.132;6.090;2023-04-03T02:29:32;7.65;;;6.97;;
54699;SDS011;40599;53.132;6.090;2023-04-03T02:31:58;7.32;;;6.60;;
54699;SDS011;40599;53.132;6.090;2023-04-03T02:34:25;7.70;;;7.00;;
54699;SDS011;40599;53.132;6.090;2023-04-03T02:36:51;9.77;;;6.57;;
54699;SDS011;40599;53.132;6.090;2023-04-03T02:39:17;13.73;;;7.05;;
54699;SDS011;40599;53.132;6.090;2023-04-03T02:41:43;8.70;;;6.35;;
54699;SDS011;40599;53.132;6.090;2023-04-03T02:44:09;7.78;;;6.57;;
54699;SDS011;40599;53.132;6.090;2023-04-03T02:46:36;8.85;;;6.75;;
54699;SDS011;40599;53.132;6.090;2023-04-03T02:49:02;8.00;;;7.20;;
54699;SDS011;40599;53.132;6.090;2023-04-03T02:51:28;7.30;;;6.55;;
54699;SDS011;40599;53.132;6.090;2023-04-03T02:53:55;9.45;;;7.10;;
54699;SDS011;40599;53.132;6.090;2023-04-03T02:56:21;8.95;;;6.85;;
54699;SDS011;40599;53.132;6.090;2023-04-03T02:58:47;7.38;;;6.75;;
54699;SDS011;40599;53.132;6.090;2023-04-03T03:01:14;8.63;;;7.50;;
54699;SDS011;40599;53.132;6.090;2023-04-03T03:03:40;10.37;;;7.20;;
54699;SDS011;40599;53.132;6.090;2023-04-03T03:06:08;7.75;;;7.05;;
54699;SDS011;40599;53.132;6.090;2023-04-03T03:08:35;9.20;;;7.75;;
54699;SDS011;40599;53.132;6.090;2023-04-03T03:11:01;10.38;;;8.07;;
54699;SDS011;40599;53.132;6.090;2023-04-03T03:13:27;11.50;;;7.88;;
54699;SDS011;40599;53.132;6.090;2023-04-03T03:15:53;10.82;;;7.70;;
54699;SDS011;40599;53.132;6.090;2023-04-03T03:18:20;10.82;;;7.80;;
54699;SDS011;40599;53.132;6.090;2023-04-03T03:20:46;9.50;;;7.47;;
54699;SDS011;40599;53.132;6.090;2023-04-03T03:23:12;7.93;;;7.07;;
54699;SDS011;40599;53.132;6.090;2023-04-03T03:25:39;9.88;;;7.57;;
54699;SDS011;40599;53.132;6.090;2023-04-03T03:28:05;9.93;;;7.75;;
54699;SDS011;40599;53.132;6.090;2023-04-03T03:30:31;9.18;;;7.85;;
54699;SDS011;40599;53.132;6.090;2023-04-03T03:32:58;8.32;;;7.43;;
54699;SDS011;40599;53.132;6.090;2023-04-03T03:35:24;9.85;;;7.90;;
54699;SDS011;40599;53.132;6.090;2023-04-03T03:37:50;11.52;;;7.70;;
54699;SDS011;40599;53.132;6.090;2023-04-03T03:40:17;15.07;;;7.63;;
54699;SDS011;40599;53.132;6.090;2023-04-03T03:42:43;9.60;;;8.60;;
54699;SDS011;40599;53.132;6.090;2023-04-03T03:45:09;8.75;;;7.88;;
54699;SDS011;40599;53.132;6.090;2023-04-03T03:47:35;9.18;;;8.23;;
54699;SDS011;40599;53.132;6.090;2023-04-03T03:50:02;8.52;;;7.50;;
54699;SDS011;40599;53.132;6.090;2023-04-03T03:52:28;11.05;;;8.30;;
54699;SDS011;40599;53.132;6.090;2023-04-03T03:54:55;11.23;;;8.20;;
54699;SDS011;40599;53.132;6.090;2023-04-03T03:57:21;9.05;;;8.15;;
54699;SDS011;40599;53.132;6.090;2023-04-03T03:59:47;9.65;;;8.43;;
54699;SDS011;40599;53.132;6.090;2023-04-03T04:02:14;8.55;;;7.85;;
54699;SDS011;40599;53.132;6.090;2023-04-03T04:07:07;8.68;;;7.90;;
54699;SDS011;40599;53.132;6.090;2023-04-03T04:09:33;10.82;;;8.07;;
54699;SDS011;40599;53.132;6.090;2023-04-03T04:12:00;8.02;;;7.43;;
54699;SDS011;40599;53.132;6.090;2023-04-03T04:14:26;11.63;;;8.73;;
54699;SDS011;40599;53.132;6.090;2023-04-03T04:16:52;10.50;;;8.90;;
54699;SDS011;40599;53.132;6.090;2023-04-03T04:19:18;9.98;;;8.90;;
54699;SDS011;40599;53.132;6.090;2023-04-03T04:21:44;9.48;;;8.73;;
54699;SDS011;40599;53.132;6.090;2023-04-03T04:24:10;11.10;;;8.52;;
54699;SDS011;40599;53.132;6.090;2023-04-03T04:26:37;9.63;;;8.40;;
54699;SDS011;40599;53.132;6.090;2023-04-03T04:29:03;9.48;;;8.57;;
54699;SDS011;40599;53.132;6.090;2023-04-03T04:31:29;9.63;;;8.68;;
54699;SDS011;40599;53.132;6.090;2023-04-03T04:33:55;9.73;;;8.73;;
54699;SDS011;40599;53.132;6.090;2023-04-03T04:36:21;9.98;;;8.98;;
54699;SDS011;40599;53.132;6.090;2023-04-03T04:38:47;14.63;;;9.82;;
54699;SDS011;40599;53.132;6.090;2023-04-03T04:41:17;11.55;;;9.20;;
54699;SDS011;40599;53.132;6.090;2023-04-03T04:43:46;11.07;;;8.95;;
54699;SDS011;40599;53.132;6.090;2023-04-03T04:46:12;12.43;;;8.85;;
54699;SDS011;40599;53.132;6.090;2023-04-03T04:48:38;9.98;;;9.07;;
54699;SDS011;40599;53.132;6.090;2023-04-03T04:51:05;11.43;;;9.55;;
54699;SDS011;40599;53.132;6.090;2023-04-03T04:53:32;13.98;;;9.70;;
54699;SDS011;40599;53.132;6.090;2023-04-03T04:55:58;13.50;;;9.88;;
54699;SDS011;40599;53.132;6.090;2023-04-03T04:58:24;14.63;;;10.30;;
54699;SDS011;40599;53.132;6.090;2023-04-03T05:00:58;11.25;;;9.52;;
54699;SDS011;40599;53.132;6.090;2023-04-03T05:03:24;16.17;;;9.48;;
54699;SDS011;40599;53.132;6.090;2023-04-03T05:05:50;14.07;;;9.90;;
54699;SDS011;40599;53.132;6.090;2023-04-03T05:08:16;10.68;;;9.57;;
54699;SDS011;40599;53.132;6.090;2023-04-03T05:10:44;10.73;;;9.73;;
54699;SDS011;40599;53.132;6.090;2023-04-03T05:13:10;13.88;;;9.88;;
54699;SDS011;40599;53.132;6.090;2023-04-03T05:15:37;14.60;;;10.02;;
54699;SDS011;40599;53.132;6.090;2023-04-03T05:18:03;11.57;;;9.80;;
54699;SDS011;40599;53.132;6.090;2023-04-03T05:20:30;10.88;;;9.93;;
54699;SDS011;40599;53.132;6.090;2023-04-03T05:22:56;12.90;;;10.07;;
54699;SDS011;40599;53.132;6.090;2023-04-03T05:25:22;11.85;;;9.52;;
54699;SDS011;40599;53.132;6.090;2023-04-03T05:27:49;11.27;;;10.13;;
54699;SDS011;40599;53.132;6.090;2023-04-03T05:30:15;12.25;;;10.73;;
54699;SDS011;40599;53.132;6.090;2023-04-03T05:32:41;10.80;;;9.65;;
54699;SDS011;40599;53.132;6.090;2023-04-03T05:35:08;11.68;;;10.30;;
54699;SDS011;40599;53.132;6.090;2023-04-03T05:37:34;17.35;;;10.32;;
54699;SDS011;40599;53.132;6.090;2023-04-03T05:40:01;13.43;;;10.20;;
54699;SDS011;40599;53.132;6.090;2023-04-03T05:42:28;11.70;;;10.50;;
54699;SDS011;40599;53.132;6.090;2023-04-03T05:44:54;12.85;;;9.48;;
54699;SDS011;40599;53.132;6.090;2023-04-03T05:47:20;16.45;;;9.75;;
54699;SDS011;40599;53.132;6.090;2023-04-03T05:49:47;14.27;;;9.95;;
54699;SDS011;40599;53.132;6.090;2023-04-03T05:52:23;11.57;;;10.13;;
54699;SDS011;40599;53.132;6.090;2023-04-03T05:54:51;13.63;;;10.18;;
54699;SDS011;40599;53.132;6.090;2023-04-03T05:57:17;12.23;;;10.05;;
54699;SDS011;40599;53.132;6.090;2023-04-03T05:59:44;16.15;;;10.80;;
54699;SDS011;40599;53.132;6.090;2023-04-03T06:02:18;11.77;;;10.60;;
54699;SDS011;40599;53.132;6.090;2023-04-03T06:04:45;14.77;;;10.32;;
54699;SDS011;40599;53.132;6.090;2023-04-03T06:07:16;14.48;;;10.15;;
54699;SDS011;40599;53.132;6.090;2023-04-03T06:09:44;12.68;;;9.68;;
54699;SDS011;40599;53.132;6.090;2023-04-03T06:12:10;12.75;;;10.45;;
54699;SDS011;40599;53.132;6.090;2023-04-03T06:14:37;16.20;;;10.13;;
54699;SDS011;40599;53.132;6.090;2023-04-03T06:17:03;13.57;;;10.00;;
54699;SDS011;40599;53.132;6.090;2023-04-03T06:19:29;15.43;;;10.65;;
54699;SDS011;40599;53.132;6.090;2023-04-03T06:21:56;10.85;;;9.43;;
54699;SDS011;40599;53.132;6.090;2023-04-03T06:24:22;14.90;;;10.32;;
54699;SDS011;40599;53.132;6.090;2023-04-03T06:26:49;16.02;;;10.60;;
54699;SDS011;40599;53.132;6.090;2023-04-03T06:29:16;12.50;;;10.63;;
54699;SDS011;40599;53.132;6.090;2023-04-03T06:31:43;13.13;;;10.98;;
54699;SDS011;40599;53.132;6.090;2023-04-03T06:34:09;12.82;;;10.20;;
54699;SDS011;40599;53.132;6.090;2023-04-03T06:36:37;15.88;;;10.40;;
54699;SDS011;40599;53.132;6.090;2023-04-03T06:39:03;15.30;;;10.55;;
54699;SDS011;40599;53.132;6.090;2023-04-03T06:41:30;13.85;;;9.88;;
54699;SDS011;40599;53.132;6.090;2023-04-03T06:43:56;12.80;;;10.48;;
54699;SDS011;40599;53.132;6.090;2023-04-03T06:46:24;12.55;;;9.45;;
54699;SDS011;40599;53.132;6.090;2023-04-03T06:48:51;12.30;;;10.15;;
54699;SDS011;40599;53.132;6.090;2023-04-03T06:51:18;13.02;;;9.18;;
54699;SDS011;40599;53.132;6.090;2023-04-03T06:53:46;10.77;;;9.45;;
54699;SDS011;40599;53.132;6.090;2023-04-03T06:56:12;11.98;;;9.32;;
54699;SDS011;40599;53.132;6.090;2023-04-03T06:58:40;11.05;;;9.50;;
54699;SDS011;40599;53.132;6.090;2023-04-03T07:01:06;10.02;;;9.02;;
54699;SDS011;40599;53.132;6.090;2023-04-03T07:03:33;12.15;;;9.93;;
54699;SDS011;40599;53.132;6.090;2023-04-03T07:06:00;14.90;;;9.50;;
54699;SDS011;40599;53.132;6.090;2023-04-03T07:08:26;10.80;;;9.48;;
54699;SDS011;40599;53.132;6.090;2023-04-03T07:10:53;16.08;;;9.70;;
54699;SDS011;40599;53.132;6.090;2023-04-03T07:13:20;11.93;;;9.25;;
54699;SDS011;40599;53.132;6.090;2023-04-03T07:15:46;11.25;;;9.65;;
54699;SDS011;40599;53.132;6.090;2023-04-03T07:18:12;12.23;;;9.20;;
54699;SDS011;40599;53.132;6.090;2023-04-03T07:20:38;14.50;;;9.02;;
54699;SDS011;40599;53.132;6.090;2023-04-03T07:23:05;13.98;;;8.55;;
54699;SDS011;40599;53.132;6.090;2023-04-03T07:25:31;9.38;;;8.10;;
54699;SDS011;40599;53.132;6.090;2023-04-03T07:27:58;11.43;;;7.88;;
54699;SDS011;40599;53.132;6.090;2023-04-03T07:30:25;7.82;;;7.03;;
54699;SDS011;40599;53.132;6.090;2023-04-03T07:32:51;10.32;;;6.85;;
54699;SDS011;40599;53.132;6.090;2023-04-03T07:35:17;12.25;;;7.20;;
54699;SDS011;40599;53.132;6.090;2023-04-03T07:37:44;7.75;;;6.43;;
54699;SDS011;40599;53.132;6.090;2023-04-03T07:40:11;10.40;;;5.97;;
54699;SDS011;40599;53.132;6.090;2023-04-03T07:42:37;9.73;;;6.53;;
54699;SDS011;40599;53.132;6.090;2023-04-03T07:45:04;9.70;;;5.90;;
54699;SDS011;40599;53.132;6.090;2023-04-03T07:47:30;10.68;;;5.18;;
54699;SDS011;40599;53.132;6.090;2023-04-03T07:49:56;9.38;;;6.45;;
54699;SDS011;40599;53.132;6.090;2023-04-03T07:52:23;9.20;;;5.90;;
54699;SDS011;40599;53.132;6.090;2023-04-03T07:54:49;8.00;;;4.70;;
54699;SDS011;40599;53.132;6.090;2023-04-03T07:57:15;6.13;;;5.50;;
54699;SDS011;40599;53.132;6.090;2023-04-03T07:59:42;8.82;;;5.28;;
54699;SDS011;40599;53.132;6.090;2023-04-03T08:02:09;11.40;;;5.18;;
54699;SDS011;40599;53.132;6.090;2023-04-03T08:04:35;7.72;;;5.10;;
54699;SDS011;40599;53.132;6.090;2023-04-03T08:07:01;9.80;;;5.20;;
54699;SDS011;40599;53.132;6.090;2023-04-03T08:09:27;9.27;;;5.20;;
54699;SDS011;40599;53.132;6.090;2023-04-03T08:11:54;9.80;;;5.57;;
54699;SDS011;40599;53.132;6.090;2023-04-03T08:14:20;8.63;;;4.95;;
54699;SDS011;40599;53.132;6.090;2023-04-03T08:16:47;7.15;;;4.70;;
54699;SDS011;40599;53.132;6.090;2023-04-03T08:21:40;9.65;;;5.43;;
54699;SDS011;40599;53.132;6.090;2023-04-03T08:24:07;7.20;;;5.13;;
54699;SDS011;40599;53.132;6.090;2023-04-03T08:26:35;6.78;;;4.47;;
54699;SDS011;40599;53.132;6.090;2023-04-03T08:29:01;8.35;;;4.93;;
54699;SDS011;40599;53.132;6.090;2023-04-03T08:31:28;6.93;;;4.93;;
54699;SDS011;40599;53.132;6.090;2023-04-03T08:33:54;8.82;;;4.47;;
54699;SDS011;40599;53.132;6.090;2023-04-03T08:36:21;8.07;;;4.30;;
54699;SDS011;40599;53.132;6.090;2023-04-03T08:38:48;5.03;;;4.50;;
54699;SDS011;40599;53.132;6.090;2023-04-03T08:46:23;6.40;;;3.63;;
54699;SDS011;40599;53.132;6.090;2023-04-03T08:48:51;8.38;;;4.22;;
54699;SDS011;40599;53.132;6.090;2023-04-03T08:51:18;8.27;;;4.88;;
54699;SDS011;40599;53.132;6.090;2023-04-03T08:54:07;8.20;;;4.47;;
54699;SDS011;40599;53.132;6.090;2023-04-03T08:56:33;4.25;;;3.70;;
54699;SDS011;40599;53.132;6.090;2023-04-03T08:59:03;6.03;;;3.95;;
54699;SDS011;40599;53.132;6.090;2023-04-03T09:01:38;4.43;;;4.03;;
54699;SDS011;40599;53.132;6.090;2023-04-03T09:04:12;4.47;;;3.85;;
54699;SDS011;40599;53.132;6.090;2023-04-03T09:06:39;6.13;;;4.10;;
54699;SDS011;40599;53.132;6.090;2023-04-03T09:14:25;6.78;;;4.18;;
54699;SDS011;40599;53.132;6.090;2023-04-03T09:19:22;7.38;;;3.80;;
54699;SDS011;40599;53.132;6.090;2023-04-03T09:21:48;6.00;;;3.78;;
54699;SDS011;40599;53.132;6.090;2023-04-03T09:24:15;4.22;;;3.33;;
54699;SDS011;40599;53.132;6.090;2023-04-03T09:29:08;5.70;;;3.60;;
54699;SDS011;40599;53.132;6.090;2023-04-03T09:31:39;6.10;;;3.30;;
54699;SDS011;40599;53.132;6.090;2023-04-03T09:34:12;5.28;;;3.63;;
54699;SDS011;40599;53.132;6.090;2023-04-03T09:36:46;5.18;;;3.30;;
54699;SDS011;40599;53.132;6.090;2023-04-03T09:39:14;6.28;;;2.97;;
54699;SDS011;40599;53.132;6.090;2023-04-03T09:41:41;7.65;;;3.38;;
54699;SDS011;40599;53.132;6.090;2023-04-03T09:44:20;5.70;;;3.78;;
54699;SDS011;40599;53.132;6.090;2023-04-03T09:46:46;5.35;;;3.10;;
54699;SDS011;40599;53.132;6.090;2023-04-03T09:49:12;5.82;;;3.47;;
54699;SDS011;40599;53.132;6.090;2023-04-03T09:51:38;4.38;;;3.35;;
54699;SDS011;40599;53.132;6.090;2023-04-03T09:56:51;5.85;;;3.05;;
54699;SDS011;40599;53.132;6.090;2023-04-03T09:59:17;5.95;;;3.00;;
54699;SDS011;40599;53.132;6.090;2023-04-03T10:01:56;4.63;;;3.30;;
54699;SDS011;40599;53.132;6.090;2023-04-03T10:04:23;6.47;;;3.38;;
54699;SDS011;40599;53.132;6.090;2023-04-03T10:06:53;5.35;;;2.90;;
54699;SDS011;40599;53.132;6.090;2023-04-03T10:09:27;5.70;;;3.00;;
54699;SDS011;40599;53.132;6.090;2023-04-03T10:14:19;5.60;;;3.10;;
54699;SDS011;40599;53.132;6.090;2023-04-03T10:16:48;5.60;;;3.28;;
54699;SDS011;40599;53.132;6.090;2023-04-03T10:24:35;5.97;;;3.10;;
54699;SDS011;40599;53.132;6.090;2023-04-03T10:27:07;3.50;;;3.00;;
54699;SDS011;40599;53.132;6.090;2023-04-03T10:32:50;4.18;;;2.95;;
54699;SDS011;40599;53.132;6.090;2023-04-03T10:35:24;4.43;;;2.83;;
54699;SDS011;40599;53.132;6.090;2023-04-03T10:38:14;3.92;;;3.00;;
54699;SDS011;40599;53.132;6.090;2023-04-03T10:51:10;4.40;;;3.00;;
54699;SDS011;40599;53.132;6.090;2023-04-03T10:53:39;5.97;;;2.75;;
54699;SDS011;40599;53.132;6.090;2023-04-03T10:58:41;5.78;;;3.13;;
54699;SDS011;40599;53.132;6.090;2023-04-03T11:01:10;4.68;;;2.80;;
54699;SDS011;40599;53.132;6.090;2023-04-03T11:03:39;4.38;;;2.70;;
54699;SDS011;40599;53.132;6.090;2023-04-03T11:06:10;5.05;;;2.70;;
54699;SDS011;40599;53.132;6.090;2023-04-03T11:11:16;6.53;;;2.60;;
54699;SDS011;40599;53.132;6.090;2023-04-03T11:13:45;5.40;;;2.72;;
54699;SDS011;40599;53.132;6.090;2023-04-03T11:16:14;3.75;;;2.35;;
54699;SDS011;40599;53.132;6.090;2023-04-03T11:18:49;4.50;;;2.53;;
54699;SDS011;40599;53.132;6.090;2023-04-03T11:21:23;4.93;;;2.40;;
54699;SDS011;40599;53.132;6.090;2023-04-03T11:23:52;3.13;;;2.30;;
54699;SDS011;40599;53.132;6.090;2023-04-03T11:26:21;4.47;;;2.53;;
54699;SDS011;40599;53.132;6.090;2023-04-03T11:28:52;2.05;;;1.80;;
54699;SDS011;40599;53.132;6.090;2023-04-03T11:34:15;4.32;;;2.20;;
54699;SDS011;40599;53.132;6.090;2023-04-03T11:36:46;3.78;;;2.35;;
54699;SDS011;40599;53.132;6.090;2023-04-03T11:39:22;2.47;;;2.17;;
54699;SDS011;40599;53.132;6.090;2023-04-03T11:41:48;3.20;;;2.15;;
54699;SDS011;40599;53.132;6.090;2023-04-03T11:44:35;4.10;;;2.10;;
54699;SDS011;40599;53.132;6.090;2023-04-03T11:47:05;5.50;;;2.50;;
54699;SDS011;40599;53.132;6.090;2023-04-03T12:13:37;4.70;;;2.50;;
54699;SDS011;40599;53.132;6.090;2023-04-03T12:21:14;3.60;;;2.60;;
54699;SDS011;40599;53.132;6.090;2023-04-03T12:26:24;4.63;;;2.70;;
54699;SDS011;40599;53.132;6.090;2023-04-03T12:28:52;3.00;;;2.70;;
54699;SDS011;40599;53.132;6.090;2023-04-03T12:31:19;4.90;;;2.85;;
54699;SDS011;40599;53.132;6.090;2023-04-03T12:37:09;3.40;;;2.50;;
54699;SDS011;40599;53.132;6.090;2023-04-03T12:47:23;3.30;;;2.67;;
54699;SDS011;40599;53.132;6.090;2023-04-03T12:49:49;4.85;;;2.60;;
54699;SDS011;40599;53.132;6.090;2023-04-03T12:55:01;5.35;;;2.60;;
54699;SDS011;40599;53.132;6.090;2023-04-03T12:57:29;4.93;;;2.97;;
54699;SDS011;40599;53.132;6.090;2023-04-03T12:59:56;3.10;;;2.53;;
54699;SDS011;40599;53.132;6.090;2023-04-03T13:02:32;6.78;;;2.50;;
54699;SDS011;40599;53.132;6.090;2023-04-03T13:05:02;3.38;;;2.58;;
54699;SDS011;40599;53.132;6.090;2023-04-03T13:07:34;4.18;;;2.50;;
54699;SDS011;40599;53.132;6.090;2023-04-03T13:10:24;4.45;;;2.78;;
54699;SDS011;40599;53.132;6.090;2023-04-03T13:12:53;4.72;;;2.75;;
54699;SDS011;40599;53.132;6.090;2023-04-03T13:15:25;4.82;;;2.60;;
54699;SDS011;40599;53.132;6.090;2023-04-03T13:17:54;5.35;;;3.03;;
54699;SDS011;40599;53.132;6.090;2023-04-03T13:20:28;3.92;;;2.88;;
54699;SDS011;40599;53.132;6.090;2023-04-03T13:22:56;5.43;;;3.03;;
54699;SDS011;40599;53.132;6.090;2023-04-03T13:25:23;4.50;;;2.50;;
54699;SDS011;40599;53.132;6.090;2023-04-03T13:27:50;4.32;;;2.80;;
54699;SDS011;40599;53.132;6.090;2023-04-03T13:30:24;7.18;;;3.15;;
54699;SDS011;40599;53.132;6.090;2023-04-03T13:32:51;4.22;;;2.83;;
54699;SDS011;40599;53.132;6.090;2023-04-03T13:38:07;4.22;;;2.90;;
54699;SDS011;40599;53.132;6.090;2023-04-03T13:40:48;3.63;;;2.90;;
54699;SDS011;40599;53.132;6.090;2023-04-03T13:43:22;5.07;;;2.80;;
54699;SDS011;40599;53.132;6.090;2023-04-03T13:46:00;5.03;;;2.72;;
54699;SDS011;40599;53.132;6.090;2023-04-03T13:48:34;3.47;;;2.88;;
54699;SDS011;40599;53.132;6.090;2023-04-03T13:51:02;3.95;;;2.53;;
54699;SDS011;40599;53.132;6.090;2023-04-03T13:53:30;4.80;;;2.78;;
54699;SDS011;40599;53.132;6.090;2023-04-03T13:58:26;4.40;;;3.00;;
54699;SDS011;40599;53.132;6.090;2023-04-03T14:03:36;4.47;;;3.00;;
54699;SDS011;40599;53.132;6.090;2023-04-03T14:06:06;4.95;;;2.90;;
54699;SDS011;40599;53.132;6.090;2023-04-03T14:08:32;3.92;;;2.83;;
54699;SDS011;40599;53.132;6.090;2023-04-03T14:10:58;3.30;;;2.92;;
54699;SDS011;40599;53.132;6.090;2023-04-03T14:13:25;3.38;;;2.80;;
54699;SDS011;40599;53.132;6.090;2023-04-03T14:15:51;5.18;;;3.03;;
54699;SDS011;40599;53.132;6.090;2023-04-03T14:18:18;5.15;;;2.90;;
54699;SDS011;40599;53.132;6.090;2023-04-03T14:20:46;4.60;;;3.10;;
54699;SDS011;40599;53.132;6.090;2023-04-03T14:23:12;3.42;;;2.55;;
54699;SDS011;40599;53.132;6.090;2023-04-03T14:25:39;4.70;;;2.80;;
54699;SDS011;40599;53.132;6.090;2023-04-03T14:30:32;3.85;;;2.72;;
54699;SDS011;40599;53.132;6.090;2023-04-03T14:32:59;3.60;;;2.80;;
54699;SDS011;40599;53.132;6.090;2023-04-03T14:35:26;4.38;;;2.60;;
54699;SDS011;40599;53.132;6.090;2023-04-03T14:37:52;4.18;;;2.60;;
54699;SDS011;40599;53.132;6.090;2023-04-03T14:40:20;3.15;;;2.47;;
54699;SDS011;40599;53.132;6.090;2023-04-03T14:42:48;4.28;;;2.78;;
54699;SDS011;40599;53.132;6.090;2023-04-03T14:45:15;3.33;;;2.58;;
54699;SDS011;40599;53.132;6.090;2023-04-03T14:47:47;7.10;;;2.92;;
54699;SDS011;40599;53.132;6.090;2023-04-03T14:50:16;5.15;;;3.05;;
54699;SDS011;40599;53.132;6.090;2023-04-03T14:52:42;4.72;;;3.38;;
54699;SDS011;40599;53.132;6.090;2023-04-03T14:55:09;3.42;;;2.67;;
54699;SDS011;40599;53.132;6.090;2023-04-03T14:57:35;4.97;;;2.85;;
54699;SDS011;40599;53.132;6.090;2023-04-03T15:00:02;5.82;;;2.92;;
54699;SDS011;40599;53.132;6.090;2023-04-03T15:02:33;5.75;;;3.53;;
54699;SDS011;40599;53.132;6.090;2023-04-03T15:05:00;5.25;;;4.43;;
54699;SDS011;40599;53.132;6.090;2023-04-03T15:07:29;6.13;;;3.75;;
54699;SDS011;40599;53.132;6.090;2023-04-03T15:09:56;4.70;;;3.65;;
54699;SDS011;40599;53.132;6.090;2023-04-03T15:12:23;4.57;;;3.60;;
54699;SDS011;40599;53.132;6.090;2023-04-03T15:14:49;7.30;;;4.10;;
54699;SDS011;40599;53.132;6.090;2023-04-03T15:17:16;4.95;;;3.60;;
54699;SDS011;40599;53.132;6.090;2023-04-03T15:19:43;7.55;;;3.90;;
54699;SDS011;40599;53.132;6.090;2023-04-03T15:22:12;5.78;;;3.78;;
54699;SDS011;40599;53.132;6.090;2023-04-03T15:24:39;5.78;;;3.70;;
54699;SDS011;40599;53.132;6.090;2023-04-03T15:27:05;5.28;;;3.60;;
54699;SDS011;40599;53.132;6.090;2023-04-03T15:29:31;7.88;;;3.47;;
54699;SDS011;40599;53.132;6.090;2023-04-03T15:31:57;5.10;;;3.63;;
54699;SDS011;40599;53.132;6.090;2023-04-03T15:34:24;4.07;;;3.13;;
54699;SDS011;40599;53.132;6.090;2023-04-03T15:36:50;4.10;;;3.08;;
54699;SDS011;40599;53.132;6.090;2023-04-03T15:39:20;4.63;;;3.20;;
54699;SDS011;40599;53.132;6.090;2023-04-03T15:41:46;6.00;;;3.28;;
54699;SDS011;40599;53.132;6.090;2023-04-03T15:44:12;4.72;;;4.28;;
54699;SDS011;40599;53.132;6.090;2023-04-03T15:46:39;4.45;;;3.22;;
54699;SDS011;40599;53.132;6.090;2023-04-03T15:51:32;5.25;;;4.75;;
54699;SDS011;40599;53.132;6.090;2023-04-03T15:53:58;7.55;;;6.88;;
54699;SDS011;40599;53.132;6.090;2023-04-03T15:56:24;9.07;;;4.15;;
54699;SDS011;40599;53.132;6.090;2023-04-03T15:58:50;6.13;;;3.60;;
54699;SDS011;40599;53.132;6.090;2023-04-03T16:01:16;6.75;;;3.85;;
54699;SDS011;40599;53.132;6.090;2023-04-03T16:03:43;5.00;;;3.38;;
54699;SDS011;40599;53.132;6.090;2023-04-03T16:06:11;6.30;;;3.53;;
54699;SDS011;40599;53.132;6.090;2023-04-03T16:08:37;5.05;;;3.42;;
54699;SDS011;40599;53.132;6.090;2023-04-03T16:11:03;4.70;;;3.30;;
54699;SDS011;40599;53.132;6.090;2023-04-03T16:13:30;3.88;;;3.45;;
54699;SDS011;40599;53.132;6.090;2023-04-03T16:15:56;5.00;;;3.40;;
54699;SDS011;40599;53.132;6.090;2023-04-03T16:18:22;3.40;;;3.10;;
54699;SDS011;40599;53.132;6.090;2023-04-03T16:20:48;4.97;;;3.63;;
54699;SDS011;40599;53.132;6.090;2023-04-03T16:23:14;4.70;;;3.22;;
54699;SDS011;40599;53.132;6.090;2023-04-03T16:25:41;4.15;;;2.92;;
54699;SDS011;40599;53.132;6.090;2023-04-03T16:28:11;4.78;;;3.63;;
54699;SDS011;40599;53.132;6.090;2023-04-03T16:30:38;4.93;;;3.10;;
54699;SDS011;40599;53.132;6.090;2023-04-03T16:33:05;4.57;;;3.10;;
54699;SDS011;40599;53.132;6.090;2023-04-03T16:35:31;7.05;;;2.97;;
54699;SDS011;40599;53.132;6.090;2023-04-03T16:37:57;5.80;;;3.72;;
54699;SDS011;40599;53.132;6.090;2023-04-03T16:40:23;6.93;;;3.28;;